createdAt,value
2023-03-21T00:00:05.990Z,12.14
2023-03-21T00:02:58.336Z,12.16
2023-03-21T00:05:51.978Z,12.17
2023-03-21T00:08:50.468Z,12.31
2023-03-21T00:11:23.554Z,12.17
2023-03-21T00:13:58.578Z,12.21
2023-03-21T00:16:36.738Z,12.23
2023-03-21T00:19:13.180Z,12.09
2023-03-21T00:22:05.504Z,12.05
2023-03-21T00:24:39.454Z,12.15
2023-03-21T00:27:39.725Z,12.04
2023-03-21T00:30:07.583Z,12.09
2023-03-21T00:32:55.189Z,12.15
2023-03-21T00:36:06.450Z,12.15
2023-03-21T00:38:21.545Z,12.03
2023-03-21T00:40:55.087Z,12.06
2023-03-21T00:43:30.220Z,12.10
2023-03-21T00:46:03.109Z,11.94
2023-03-21T00:48:35.975Z,12.07
2023-03-21T00:51:16.662Z,12.05
2023-03-21T00:53:49.782Z,12.04
2023-03-21T00:56:22.395Z,11.96
2023-03-21T00:58:55.824Z,11.89
2023-03-21T01:01:34.695Z,11.96
2023-03-21T01:04:14.609Z,11.91
2023-03-21T01:06:48.741Z,11.76
2023-03-21T01:09:24.261Z,11.92
2023-03-21T01:11:57.468Z,11.95
2023-03-21T01:14:31.610Z,11.95
2023-03-21T01:17:04.522Z,11.89
2023-03-21T01:19:51.117Z,12.00
2023-03-21T01:22:25.576Z,12.01
2023-03-21T01:25:08.870Z,11.82
2023-03-21T01:27:46.380Z,11.94
2023-03-21T01:30:23.016Z,11.93
2023-03-21T01:32:57.226Z,11.97
2023-03-21T01:35:34.463Z,11.91
2023-03-21T01:38:11.092Z,11.89
2023-03-21T01:40:45.794Z,11.84
2023-03-21T01:43:33.243Z,11.80
2023-03-21T01:46:32.328Z,11.80
2023-03-21T01:49:26.224Z,11.77
2023-03-21T01:52:15.194Z,11.86
2023-03-21T01:54:51.345Z,11.73
2023-03-21T01:57:43.610Z,11.74
2023-03-21T02:00:21.657Z,11.80
2023-03-21T02:03:11.068Z,11.78
2023-03-21T02:06:04.996Z,11.82
2023-03-21T02:08:41.349Z,11.79
2023-03-21T02:11:19.140Z,11.77
2023-03-21T02:14:01.051Z,11.76
2023-03-21T02:16:51.858Z,11.64
2023-03-21T02:20:01.065Z,11.67
2023-03-21T02:22:59.727Z,11.70
2023-03-21T02:26:04.779Z,11.63
2023-03-21T02:28:43.374Z,11.79
2023-03-21T02:31:32.361Z,11.81
2023-03-21T02:34:38.452Z,11.81
2023-03-21T02:37:26.057Z,11.75
2023-03-21T02:40:11.320Z,11.68
2023-03-21T02:43:01.479Z,11.67
2023-03-21T02:45:46.675Z,11.67
2023-03-21T02:48:31.184Z,11.65
2023-03-21T02:51:12.679Z,11.71
2023-03-21T02:53:53.318Z,11.68
2023-03-21T02:56:34.777Z,11.64
2023-03-21T02:59:10.372Z,11.64
2023-03-21T03:01:43.406Z,11.66
2023-03-21T03:04:25.193Z,11.60
2023-03-21T03:07:25.651Z,11.66
2023-03-21T03:10:23.311Z,11.60
2023-03-21T03:13:09.567Z,11.56
2023-03-21T03:15:48.818Z,11.55
2023-03-21T03:18:30.897Z,11.53
2023-03-21T03:21:18.163Z,11.51
2023-03-21T03:23:54.911Z,11.54
2023-03-21T03:26:32.163Z,11.50
2023-03-21T03:29:09.096Z,11.44
2023-03-21T03:31:46.278Z,11.51
2023-03-21T03:34:22.365Z,11.51
2023-03-21T03:36:58.572Z,11.47
2023-03-21T03:39:37.150Z,11.54
2023-03-21T03:42:27.600Z,11.52
2023-03-21T03:45:07.037Z,11.49
2023-03-21T03:47:55.993Z,11.50
2023-03-21T03:50:33.664Z,11.43
2023-03-21T03:53:18.533Z,11.34
2023-03-21T03:55:51.269Z,11.45
2023-03-21T03:58:36.092Z,11.45
2023-03-21T04:01:17.169Z,11.43
2023-03-21T04:03:58.379Z,11.38
2023-03-21T04:06:36.382Z,11.39
2023-03-21T04:09:20.538Z,11.42
2023-03-21T04:11:55.545Z,11.35
2023-03-21T04:14:42.089Z,11.37
2023-03-21T04:17:17.600Z,11.37
2023-03-21T04:19:55.547Z,11.39
2023-03-21T04:22:31.350Z,11.44
2023-03-21T04:25:05.409Z,11.39
2023-03-21T04:27:38.643Z,11.28
2023-03-21T04:30:29.712Z,11.41
2023-03-21T04:33:12.366Z,11.47
2023-03-21T04:35:46.210Z,11.42
2023-03-21T04:38:19.213Z,11.40
2023-03-21T04:40:52.275Z,11.47
2023-03-21T04:43:25.233Z,11.42
2023-03-21T04:45:59.575Z,11.43
2023-03-21T04:48:31.270Z,11.36
2023-03-21T04:51:06.089Z,11.31
2023-03-21T04:53:39.839Z,11.26
2023-03-21T04:56:14.166Z,11.27
2023-03-21T04:58:47.174Z,11.23
2023-03-21T05:01:20.912Z,11.20
2023-03-21T05:03:53.909Z,11.28
2023-03-21T05:06:27.950Z,11.34
2023-03-21T05:09:05.587Z,11.37
2023-03-21T05:11:41.108Z,11.41
2023-03-21T05:14:16.174Z,11.42
2023-03-21T05:16:53.389Z,11.39
2023-03-21T05:19:34.953Z,11.25
2023-03-21T05:22:11.299Z,11.34
2023-03-21T05:24:50.221Z,11.33
2023-03-21T05:27:46.325Z,11.35
2023-03-21T05:30:21.540Z,11.35
2023-03-21T05:32:53.134Z,11.24
2023-03-21T05:35:26.961Z,11.10
2023-03-21T05:38:00.704Z,11.07
2023-03-21T05:40:36.195Z,11.01
2023-03-21T05:43:10.209Z,11.04
2023-03-21T05:45:49.166Z,11.05
2023-03-21T05:48:22.465Z,11.19
2023-03-21T05:51:14.240Z,11.32
2023-03-21T05:53:47.437Z,11.14
2023-03-21T05:56:22.244Z,11.08
2023-03-21T05:59:01.729Z,11.18
2023-03-21T06:01:35.859Z,11.28
2023-03-21T06:04:17.232Z,11.21
2023-03-21T06:06:51.047Z,11.18
2023-03-21T06:09:24.388Z,11.19
2023-03-21T06:12:01.581Z,11.24
2023-03-21T06:14:55.152Z,11.39
2023-03-21T06:17:34.815Z,11.46
2023-03-21T06:20:13.060Z,11.40
2023-03-21T06:22:50.026Z,11.27
2023-03-21T06:25:23.120Z,11.27
2023-03-21T06:27:56.742Z,11.23
2023-03-21T06:30:29.604Z,11.28
2023-03-21T06:33:17.954Z,11.27
2023-03-21T06:35:56.424Z,11.27
2023-03-21T06:38:29.756Z,11.29
2023-03-21T06:41:04.781Z,11.42
2023-03-21T06:43:40.050Z,11.48
2023-03-21T06:46:14.075Z,11.43
2023-03-21T06:48:47.544Z,11.54
2023-03-21T06:51:20.690Z,11.50
2023-03-21T06:54:03.112Z,11.58
2023-03-21T06:56:50.349Z,11.59
2023-03-21T06:59:28.581Z,11.57
2023-03-21T07:02:07.564Z,11.53
2023-03-21T07:04:44.879Z,11.52
2023-03-21T07:07:26.125Z,11.54
2023-03-21T07:09:59.303Z,11.58
2023-03-21T07:12:34.349Z,11.68
2023-03-21T07:15:15.687Z,11.70
2023-03-21T07:17:49.352Z,11.74
2023-03-21T07:20:22.363Z,11.71
2023-03-21T07:22:55.079Z,11.77
2023-03-21T07:25:28.336Z,11.75
2023-03-21T07:28:01.801Z,11.68
2023-03-21T07:30:34.857Z,11.75
2023-03-21T07:33:08.741Z,11.73
2023-03-21T07:35:41.994Z,11.70
2023-03-21T07:38:16.928Z,11.63
2023-03-21T07:40:50.602Z,11.60
2023-03-21T07:43:23.690Z,11.68
2023-03-21T07:46:01.671Z,11.74
2023-03-21T07:48:34.620Z,11.76
2023-03-21T07:51:07.993Z,11.68
2023-03-21T07:53:42.069Z,11.74
2023-03-21T07:56:14.967Z,11.79
2023-03-21T07:58:47.632Z,11.79
2023-03-21T08:01:22.120Z,11.81
2023-03-21T08:03:55.122Z,11.84
2023-03-21T08:06:32.477Z,11.90
2023-03-21T08:09:06.001Z,11.94
2023-03-21T08:11:38.816Z,11.97
2023-03-21T08:14:11.868Z,11.75
2023-03-21T08:16:45.005Z,11.91
2023-03-21T08:19:18.840Z,11.92
2023-03-21T08:21:52.221Z,11.87
2023-03-21T08:24:24.641Z,11.81
2023-03-21T08:26:57.371Z,11.74
2023-03-21T08:29:30.231Z,11.85
2023-03-21T08:32:03.389Z,11.90
2023-03-21T08:34:36.628Z,11.82
2023-03-21T08:37:09.444Z,11.84
2023-03-21T08:39:42.119Z,11.88
2023-03-21T08:42:15.176Z,11.82
2023-03-21T08:44:48.068Z,11.87
2023-03-21T08:47:20.885Z,11.96
2023-03-21T08:49:53.488Z,12.01
2023-03-21T08:52:27.226Z,11.82
2023-03-21T08:54:59.765Z,11.97
2023-03-21T08:57:32.619Z,12.04
2023-03-21T09:00:12.246Z,12.14
2023-03-21T09:02:46.009Z,12.15
2023-03-21T09:05:19.619Z,12.20
2023-03-21T09:07:52.963Z,12.12
2023-03-21T09:10:25.893Z,12.17
2023-03-21T09:12:59.033Z,12.29
2023-03-21T09:15:31.998Z,12.32
2023-03-21T09:18:16.069Z,12.32
2023-03-21T09:20:50.534Z,12.38
2023-03-21T09:23:23.698Z,12.45
2023-03-21T09:25:56.492Z,12.47
2023-03-21T09:28:29.577Z,12.51
2023-03-21T09:31:04.125Z,12.47
2023-03-21T09:33:37.343Z,12.52
2023-03-21T09:36:14.599Z,12.52
2023-03-21T09:38:48.285Z,12.51
2023-03-21T09:41:33.565Z,12.56
2023-03-21T09:44:23.136Z,12.63
2023-03-21T09:47:02.679Z,12.68
2023-03-21T09:49:41.804Z,12.77
2023-03-21T09:52:20.390Z,12.79
2023-03-21T09:54:53.966Z,12.93
2023-03-21T09:57:33.470Z,12.98
2023-03-21T10:00:15.976Z,13.16
2023-03-21T10:02:51.964Z,13.23
2023-03-21T10:05:27.885Z,13.03
2023-03-21T10:08:04.740Z,13.12
2023-03-21T10:10:41.706Z,13.10
2023-03-21T10:13:19.126Z,13.10
2023-03-21T10:15:51.932Z,13.09
2023-03-21T10:18:28.825Z,13.15
2023-03-21T10:21:02.565Z,13.27
2023-03-21T10:23:35.304Z,13.30
2023-03-21T10:26:10.283Z,13.19
2023-03-21T10:28:53.078Z,13.26
2023-03-21T10:31:30.285Z,13.40
2023-03-21T10:37:36.519Z,13.66
2023-03-21T10:40:16.594Z,13.67
2023-03-21T10:42:49.295Z,13.69
2023-03-21T10:45:23.733Z,13.75
2023-03-21T10:47:58.407Z,13.82
2023-03-21T10:50:30.798Z,13.81
2023-03-21T10:53:04.636Z,13.93
2023-03-21T10:55:42.113Z,14.01
2023-03-21T10:58:25.377Z,14.08
2023-03-21T11:01:02.702Z,14.18
2023-03-21T11:03:38.541Z,14.28
2023-03-21T11:06:18.352Z,14.20
2023-03-21T11:08:55.611Z,14.28
2023-03-21T11:11:34.466Z,14.35
2023-03-21T11:14:09.403Z,14.37
2023-03-21T11:16:43.880Z,14.33
2023-03-21T11:19:18.319Z,14.28
2023-03-21T11:21:51.226Z,14.39
2023-03-21T11:24:24.871Z,14.50
2023-03-21T11:26:59.123Z,14.56
2023-03-21T11:29:34.265Z,14.47
2023-03-21T11:32:13.981Z,14.45
2023-03-21T11:34:50.038Z,14.42
2023-03-21T11:37:27.212Z,14.30
2023-03-21T11:40:19.234Z,14.30
2023-03-21T11:42:53.381Z,14.33
2023-03-21T11:45:28.346Z,14.35
2023-03-21T11:48:02.734Z,14.33
2023-03-21T11:50:38.656Z,14.47
2023-03-21T11:53:28.071Z,14.57
2023-03-21T11:56:13.608Z,14.70
2023-03-21T11:59:01.324Z,14.76
2023-03-21T12:01:43.938Z,14.81
2023-03-21T12:04:35.414Z,14.78
2023-03-21T12:07:20.662Z,14.79
2023-03-21T12:10:01.206Z,14.87
2023-03-21T12:12:46.072Z,14.88
2023-03-21T12:15:26.242Z,14.92
2023-03-21T12:18:08.250Z,14.88
2023-03-21T12:20:46.323Z,14.89
2023-03-21T12:23:44.073Z,15.11
2023-03-21T12:26:27.142Z,15.11
2023-03-21T12:29:15.683Z,15.00
2023-03-21T12:31:56.973Z,14.96
2023-03-21T12:34:44.178Z,15.14
2023-03-21T12:37:25.787Z,15.19
2023-03-21T12:40:07.580Z,15.24
2023-03-21T12:43:01.670Z,15.28
2023-03-21T12:45:46.698Z,15.06
2023-03-21T12:48:27.298Z,15.18
2023-03-21T12:51:03.823Z,15.15
2023-03-21T12:53:45.848Z,15.10
2023-03-21T12:56:24.049Z,14.89
2023-03-21T12:59:03.333Z,14.84
2023-03-21T13:01:40.282Z,14.78
2023-03-21T13:04:29.760Z,14.82
2023-03-21T13:07:04.394Z,14.84
2023-03-21T13:09:40.529Z,14.86
2023-03-21T13:12:27.205Z,14.69
2023-03-21T13:15:31.497Z,14.69
2023-03-21T13:18:13.763Z,14.72
2023-03-21T13:20:50.628Z,14.64
2023-03-21T13:23:25.633Z,14.48
2023-03-21T13:26:00.420Z,14.59
2023-03-21T13:28:32.556Z,14.44
2023-03-21T13:31:23.743Z,14.41
2023-03-21T13:34:00.423Z,14.42
2023-03-21T13:36:37.954Z,14.45
2023-03-21T13:39:21.907Z,14.44
2023-03-21T13:41:56.169Z,14.35
2023-03-21T13:44:40.992Z,14.35
2023-03-21T13:47:44.378Z,14.45
2023-03-21T13:50:38.099Z,14.35
2023-03-21T13:53:27.375Z,14.45
2023-03-21T13:56:10.693Z,14.42
2023-03-21T13:58:55.406Z,14.55
2023-03-21T14:01:35.786Z,14.64
2023-03-21T14:04:17.533Z,14.76
2023-03-21T14:06:56.412Z,14.66
2023-03-21T14:09:35.029Z,14.81
2023-03-21T14:12:12.438Z,14.59
2023-03-21T14:14:48.058Z,14.66
2023-03-21T14:17:26.686Z,14.64
2023-03-21T14:20:11.376Z,14.72
2023-03-21T14:22:47.593Z,14.68
2023-03-21T14:25:21.901Z,14.82
2023-03-21T14:27:59.738Z,14.90
2023-03-21T14:30:36.164Z,14.92
2023-03-21T14:33:17.420Z,14.86
2023-03-21T14:35:51.060Z,14.86
2023-03-21T14:38:26.510Z,14.84
2023-03-21T14:40:59.424Z,14.79
2023-03-21T14:43:34.242Z,14.71
2023-03-21T14:46:07.988Z,14.76
2023-03-21T14:48:41.305Z,14.68
2023-03-21T14:51:14.553Z,14.61
2023-03-21T14:53:48.092Z,14.48
2023-03-21T14:56:25.290Z,14.42
2023-03-21T14:58:58.057Z,14.34
2023-03-21T15:01:34.838Z,14.44
2023-03-21T15:04:09.837Z,14.46
2023-03-21T15:06:51.778Z,14.38
2023-03-21T15:09:28.331Z,14.36
2023-03-21T15:12:01.572Z,14.11
2023-03-21T15:14:36.839Z,14.03
2023-03-21T15:17:11.523Z,14.13
2023-03-21T15:19:43.799Z,14.11
2023-03-21T15:22:25.104Z,13.96
2023-03-21T15:25:04.547Z,14.15
2023-03-21T15:27:42.302Z,14.22
2023-03-21T15:30:23.833Z,14.18
2023-03-21T15:32:57.000Z,14.13
2023-03-21T15:35:34.722Z,14.10
2023-03-21T15:38:07.566Z,14.08
2023-03-21T15:40:40.670Z,14.11
2023-03-21T15:43:18.995Z,14.16
2023-03-21T15:45:56.413Z,14.02
2023-03-21T15:48:30.518Z,14.06
2023-03-21T15:51:07.581Z,13.99
2023-03-21T15:53:44.919Z,13.96
2023-03-21T15:56:17.803Z,13.93
2023-03-21T15:58:53.549Z,14.00
2023-03-21T16:01:26.703Z,13.99
2023-03-21T16:04:04.335Z,14.00
2023-03-21T16:06:39.682Z,14.00
2023-03-21T16:09:22.178Z,14.00
2023-03-21T16:11:56.554Z,14.00
2023-03-21T16:14:29.959Z,13.98
2023-03-21T16:17:02.892Z,13.93
2023-03-21T16:19:35.982Z,13.96
2023-03-21T16:22:12.153Z,13.98
2023-03-21T16:24:45.253Z,13.95
2023-03-21T16:27:20.186Z,13.96
2023-03-21T16:29:51.271Z,13.95
2023-03-21T16:32:24.201Z,13.83
2023-03-21T16:34:56.983Z,13.68
2023-03-21T16:37:29.944Z,13.85
2023-03-21T16:40:05.904Z,13.84
2023-03-21T16:42:38.818Z,13.74
2023-03-21T16:45:12.718Z,13.77
2023-03-21T16:47:45.815Z,13.76
2023-03-21T16:50:31.811Z,13.71
2023-03-21T16:53:05.696Z,13.73
2023-03-21T16:55:39.473Z,13.72
2023-03-21T16:58:15.914Z,13.68
2023-03-21T17:00:48.888Z,13.66
2023-03-21T17:03:22.139Z,13.62
2023-03-21T17:05:54.863Z,13.64
2023-03-21T17:08:29.246Z,13.63
2023-03-21T17:11:06.477Z,13.64
2023-03-21T17:13:39.345Z,13.64
2023-03-21T17:16:12.911Z,13.64
2023-03-21T17:18:46.325Z,13.62
2023-03-21T17:21:21.153Z,13.61
2023-03-21T17:23:56.684Z,13.60
2023-03-21T17:26:30.972Z,13.56
2023-03-21T17:29:04.246Z,13.55
2023-03-21T17:42:11.664Z,13.55
2023-03-21T17:44:44.246Z,13.50
2023-03-21T17:47:17.695Z,13.46
2023-03-21T17:49:51.664Z,13.44
2023-03-21T17:52:24.815Z,13.40
2023-03-21T17:54:58.745Z,13.42
2023-03-21T17:57:31.645Z,13.32
2023-03-21T18:00:10.014Z,13.37
2023-03-21T18:02:44.656Z,13.37
2023-03-21T18:05:17.953Z,13.36
2023-03-21T18:08:09.428Z,13.35
2023-03-21T18:10:43.062Z,13.34
2023-03-21T18:13:16.566Z,13.35
2023-03-21T18:15:50.691Z,13.36
2023-03-21T18:18:23.553Z,13.35
2023-03-21T18:20:58.332Z,13.34
2023-03-21T18:23:32.372Z,13.32
2023-03-21T18:26:05.519Z,13.31
2023-03-21T18:28:39.995Z,13.29
2023-03-21T18:31:19.826Z,13.27
2023-03-21T18:33:52.945Z,13.28
2023-03-21T18:36:28.611Z,13.29
2023-03-21T18:39:03.522Z,13.19
2023-03-21T18:41:37.666Z,13.29
2023-03-21T18:44:17.448Z,13.28
2023-03-21T18:46:51.790Z,13.29
2023-03-21T18:50:05.985Z,13.27
2023-03-21T18:52:18.221Z,13.24
2023-03-21T18:54:51.074Z,13.26
2023-03-21T18:57:36.516Z,13.26
2023-03-21T19:00:13.993Z,13.14
2023-03-21T19:02:50.830Z,13.20
2023-03-21T19:05:26.042Z,13.17
2023-03-21T19:07:58.948Z,13.21
2023-03-21T19:10:31.734Z,13.17
2023-03-21T19:13:04.608Z,13.21
2023-03-21T19:15:38.591Z,13.21
2023-03-21T19:18:37.907Z,13.17
2023-03-21T19:21:06.447Z,13.10
2023-03-21T19:24:19.412Z,13.03
2023-03-21T19:26:33.839Z,12.99
2023-03-21T19:29:07.260Z,12.86
2023-03-21T19:31:40.249Z,12.89
2023-03-21T19:34:13.926Z,12.95
2023-03-21T19:36:51.566Z,12.98
2023-03-21T19:39:25.796Z,12.90
2023-03-21T19:42:14.959Z,12.88
2023-03-21T19:44:49.347Z,12.88
2023-03-21T19:47:22.533Z,12.89
2023-03-21T19:50:40.797Z,12.93
2023-03-21T19:52:48.684Z,12.83
2023-03-21T19:55:21.546Z,12.88
2023-03-21T19:57:54.140Z,12.77
2023-03-21T20:00:27.632Z,12.85
2023-03-21T20:03:00.975Z,12.85
2023-03-21T20:05:34.023Z,12.91
2023-03-21T20:08:10.624Z,12.95
2023-03-21T20:10:46.526Z,12.81
2023-03-21T20:13:19.121Z,12.91
2023-03-21T20:15:55.183Z,12.91
2023-03-21T20:18:29.883Z,12.90
2023-03-21T20:21:04.442Z,12.83
2023-03-21T20:23:39.090Z,12.90
2023-03-21T20:26:14.200Z,12.89
2023-03-21T20:29:01.208Z,12.86
2023-03-21T20:31:41.719Z,12.86
2023-03-21T20:34:14.781Z,12.83
2023-03-21T20:36:48.363Z,12.83
2023-03-21T20:39:21.407Z,12.87
2023-03-21T20:41:54.964Z,12.85
2023-03-21T20:44:51.979Z,12.72
2023-03-21T20:47:20.677Z,12.82
2023-03-21T20:49:55.172Z,12.81
2023-03-21T20:52:57.493Z,12.75
2023-03-21T20:55:22.606Z,12.79
2023-03-21T20:57:56.304Z,12.78
2023-03-21T21:00:29.680Z,12.80
2023-03-21T21:03:04.178Z,12.81
2023-03-21T21:05:38.277Z,12.82
2023-03-21T21:08:12.571Z,12.81
2023-03-21T21:11:24.294Z,12.79
2023-03-21T21:13:39.022Z,12.78
2023-03-21T21:16:13.185Z,12.73
2023-03-21T21:18:46.366Z,12.63
2023-03-21T21:21:19.298Z,12.71
2023-03-21T21:23:52.046Z,12.61
2023-03-21T21:26:25.065Z,12.66
2023-03-21T21:29:00.474Z,12.68
2023-03-21T21:31:35.849Z,12.69
2023-03-21T21:34:09.156Z,12.70
2023-03-21T21:36:43.211Z,12.62
2023-03-21T21:39:17.228Z,12.62
2023-03-21T21:41:50.133Z,12.67
2023-03-21T21:44:23.064Z,12.69
2023-03-21T21:46:57.720Z,12.71
2023-03-21T21:49:30.219Z,12.67
2023-03-21T21:52:05.999Z,12.65
2023-03-21T21:54:39.417Z,12.65
2023-03-21T21:57:12.137Z,12.68
2023-03-21T21:59:45.240Z,12.70
2023-03-21T22:02:19.784Z,12.68
2023-03-21T22:04:51.642Z,12.70
2023-03-21T22:07:24.964Z,12.62
2023-03-21T22:09:58.014Z,12.63
2023-03-21T22:12:30.806Z,12.50
2023-03-21T22:15:04.119Z,12.50
2023-03-21T22:17:37.740Z,12.47
2023-03-21T22:20:12.932Z,12.56
2023-03-21T22:22:46.105Z,12.38
2023-03-21T22:25:19.865Z,12.45
2023-03-21T22:27:52.349Z,12.59
2023-03-21T22:30:25.570Z,12.65
2023-03-21T22:33:08.790Z,12.60
2023-03-21T22:35:43.269Z,12.58
2023-03-21T22:38:18.048Z,12.67
2023-03-21T22:40:56.565Z,12.70
2023-03-21T22:43:29.229Z,12.68
2023-03-21T22:46:02.696Z,12.68
2023-03-21T22:48:36.372Z,12.63
2023-03-21T22:51:10.495Z,12.59
2023-03-21T22:53:43.241Z,12.61
2023-03-21T22:56:16.472Z,12.65
2023-03-21T22:58:49.228Z,12.67
2023-03-21T23:01:22.373Z,12.66
2023-03-21T23:03:55.099Z,12.66
2023-03-21T23:06:28.326Z,12.72
2023-03-21T23:09:01.016Z,12.72
2023-03-21T23:11:33.703Z,12.50
2023-03-21T23:14:08.427Z,12.69
2023-03-21T23:16:41.114Z,12.73
2023-03-21T23:19:14.166Z,12.69
2023-03-21T23:21:47.474Z,12.74
2023-03-21T23:24:20.561Z,12.74
2023-03-21T23:26:53.328Z,12.74
2023-03-21T23:29:25.842Z,12.75
2023-03-21T23:31:58.582Z,12.71
2023-03-21T23:34:31.654Z,12.68
2023-03-21T23:37:04.489Z,12.66
2023-03-21T23:39:37.341Z,12.61
2023-03-21T23:42:10.174Z,12.60
2023-03-21T23:44:42.970Z,12.53
2023-03-21T23:47:16.940Z,12.61
2023-03-21T23:49:52.816Z,12.52
2023-03-21T23:52:26.220Z,12.49
2023-03-21T23:54:59.145Z,12.54
2023-03-21T23:57:31.992Z,12.48
